sensor_id;sensor_type;location;lat;lon;timestamp;pressure;altitude;pressure_sealevel;temperature;humidity
60583;BME280;46415;47.536;19.066;2023-10-13T00:01:01;-18631.00;;;14.81;100.00
60583;BME280;46415;47.536;19.066;2023-10-13T00:04:19;-18630.59;;;14.79;100.00
60583;BME280;46415;47.536;19.066;2023-10-13T00:07:32;-18631.13;;;14.81;100.00
60583;BME280;46415;47.536;19.066;2023-10-13T00:10:47;-18631.41;;;14.82;100.00
60583;BME280;46415;47.536;19.066;2023-10-13T00:14:00;-18632.22;;;14.85;100.00
60583;BME280;46415;47.536;19.066;2023-10-13T00:17:15;-18632.09;;;14.85;100.00
60583;BME280;46415;47.536;19.066;2023-10-13T00:20:31;-18632.09;;;14.85;100.00
60583;BME280;46415;47.536;19.066;2023-10-13T00:23:52;-18631.28;;;14.82;100.00
60583;BME280;46415;47.536;19.066;2023-10-13T00:27:06;-18628.41;;;14.71;100.00
60583;BME280;46415;47.536;19.066;2023-10-13T00:30:22;-18626.50;;;14.64;100.00
60583;BME280;46415;47.536;19.066;2023-10-13T00:33:42;-18625.28;;;14.59;100.00
60583;BME280;46415;47.536;19.066;2023-10-13T00:36:54;-18623.75;;;14.54;100.00
60583;BME280;46415;47.536;19.066;2023-10-13T00:40:40;-18624.59;;;14.57;100.00
60583;BME280;46415;47.536;19.066;2023-10-13T00:43:57;-18624.03;;;14.55;100.00
60583;BME280;46415;47.536;19.066;2023-10-13T00:47:18;-18625.00;;;14.58;100.00
60583;BME280;46415;47.536;19.066;2023-10-13T00:50:47;-18623.91;;;14.54;100.00
60583;BME280;46415;47.536;19.066;2023-10-13T00:54:02;-18626.22;;;14.63;100.00
60583;BME280;46415;47.536;19.066;2023-10-13T00:57:24;-18624.72;;;14.57;100.00
60583;BME280;46415;47.536;19.066;2023-10-13T01:00:38;-18627.44;;;14.67;100.00
60583;BME280;46415;47.536;19.066;2023-10-13T01:03:54;-18625.28;;;14.59;100.00
60583;BME280;46415;47.536;19.066;2023-10-13T01:07:13;-18623.75;;;14.54;100.00
60583;BME280;46415;47.536;19.066;2023-10-13T01:10:32;-18623.09;;;14.51;100.00
60583;BME280;46415;47.536;19.066;2023-10-13T01:13:53;-18623.75;;;14.54;100.00
60583;BME280;46415;47.536;19.066;2023-10-13T01:17:11;-18622.41;;;14.49;100.00
60583;BME280;46415;47.536;19.066;2023-10-13T01:20:29;-18622.94;;;14.51;100.00
60583;BME280;46415;47.536;19.066;2023-10-13T01:23:49;-18623.22;;;14.52;100.00
60583;BME280;46415;47.536;19.066;2023-10-13T01:27:06;-18624.19;;;14.55;100.00
60583;BME280;46415;47.536;19.066;2023-10-13T01:30:35;-18625.94;;;14.62;100.00
60583;BME280;46415;47.536;19.066;2023-10-13T01:33:47;-18625.00;;;14.58;100.00
60583;BME280;46415;47.536;19.066;2023-10-13T01:37:05;-18624.31;;;14.56;100.00
60583;BME280;46415;47.536;19.066;2023-10-13T01:40:23;-18624.03;;;14.55;100.00
60583;BME280;46415;47.536;19.066;2023-10-13T01:43:40;-18623.63;;;14.53;100.00
60583;BME280;46415;47.536;19.066;2023-10-13T01:46:53;-18623.50;;;14.53;100.00
60583;BME280;46415;47.536;19.066;2023-10-13T01:50:06;-18622.41;;;14.49;100.00
60583;BME280;46415;47.536;19.066;2023-10-13T01:53:30;-18621.72;;;14.46;100.00
60583;BME280;46415;47.536;19.066;2023-10-13T01:56:42;-18621.44;;;14.45;100.00
60583;BME280;46415;47.536;19.066;2023-10-13T02:00:00;-18621.59;;;14.46;100.00
60583;BME280;46415;47.536;19.066;2023-10-13T02:03:25;-18622.69;;;14.50;100.00
60583;BME280;46415;47.536;19.066;2023-10-13T02:06:39;-18625.94;;;14.62;100.00
60583;BME280;46415;47.536;19.066;2023-10-13T02:09:58;-18626.50;;;14.64;100.00
60583;BME280;46415;47.536;19.066;2023-10-13T02:13:06;-18624.19;;;14.55;100.00
60583;BME280;46415;47.536;19.066;2023-10-13T02:16:30;-18623.50;;;14.53;100.00
60583;BME280;46415;47.536;19.066;2023-10-13T02:19:42;-18623.63;;;14.53;100.00
60583;BME280;46415;47.536;19.066;2023-10-13T02:23:00;-18623.50;;;14.53;100.00
60583;BME280;46415;47.536;19.066;2023-10-13T02:26:14;-18623.50;;;14.53;100.00
60583;BME280;46415;47.536;19.066;2023-10-13T02:29:30;-18622.94;;;14.51;100.00
60583;BME280;46415;47.536;19.066;2023-10-13T02:32:48;-18622.94;;;14.51;100.00
60583;BME280;46415;47.536;19.066;2023-10-13T02:36:04;-18623.50;;;14.53;100.00
60583;BME280;46415;47.536;19.066;2023-10-13T02:39:19;-18626.63;;;14.64;100.00
60583;BME280;46415;47.536;19.066;2023-10-13T02:42:45;-18627.59;;;14.68;100.00
60583;BME280;46415;47.536;19.066;2023-10-13T02:45:58;-18628.81;;;14.73;100.00
60583;BME280;46415;47.536;19.066;2023-10-13T02:49:10;-18628.28;;;14.70;100.00
60583;BME280;46415;47.536;19.066;2023-10-13T02:52:23;-18627.72;;;14.68;100.00
60583;BME280;46415;47.536;19.066;2023-10-13T02:55:48;-18628.53;;;14.72;100.00
60583;BME280;46415;47.536;19.066;2023-10-13T02:59:01;-18628.94;;;14.73;100.00
60583;BME280;46415;47.536;19.066;2023-10-13T03:02:20;-18628.41;;;14.71;100.00
60583;BME280;46415;47.536;19.066;2023-10-13T03:05:38;-18628.41;;;14.71;100.00
60583;BME280;46415;47.536;19.066;2023-10-13T03:08:58;-18627.44;;;14.67;100.00
60583;BME280;46415;47.536;19.066;2023-10-13T03:12:24;-18626.78;;;14.65;100.00
60583;BME280;46415;47.536;19.066;2023-10-13T03:15:40;-18625.94;;;14.62;100.00
60583;BME280;46415;47.536;19.066;2023-10-13T03:18:58;-18625.69;;;14.61;100.00
60583;BME280;46415;47.536;19.066;2023-10-13T03:22:11;-18626.09;;;14.62;100.00
60583;BME280;46415;47.536;19.066;2023-10-13T03:25:30;-18625.81;;;14.61;100.00
60583;BME280;46415;47.536;19.066;2023-10-13T03:29:00;-18626.22;;;14.63;100.00
60583;BME280;46415;47.536;19.066;2023-10-13T03:32:18;-18626.09;;;14.62;100.00
60583;BME280;46415;47.536;19.066;2023-10-13T03:35:32;-18631.81;;;14.84;100.00
60583;BME280;46415;47.536;19.066;2023-10-13T03:38:57;-18626.78;;;14.65;100.00
60583;BME280;46415;47.536;19.066;2023-10-13T03:42:13;-18625.53;;;14.60;100.00
60583;BME280;46415;47.536;19.066;2023-10-13T03:48:58;-18625.69;;;14.61;100.00
60583;BME280;46415;47.536;19.066;2023-10-13T03:52:16;-18627.59;;;14.68;100.00
60583;BME280;46415;47.536;19.066;2023-10-13T03:55:38;-18626.63;;;14.64;100.00
60583;BME280;46415;47.536;19.066;2023-10-13T03:58:46;-18627.03;;;14.66;100.00
60583;BME280;46415;47.536;19.066;2023-10-13T04:02:00;-18628.13;;;14.70;100.00
60583;BME280;46415;47.536;19.066;2023-10-13T04:05:14;-18628.69;;;14.72;100.00
60583;BME280;46415;47.536;19.066;2023-10-13T04:08:44;-18630.59;;;14.79;100.00
60583;BME280;46415;47.536;19.066;2023-10-13T04:12:00;-18631.69;;;14.83;100.00
60583;BME280;46415;47.536;19.066;2023-10-13T04:15:10;-18632.38;;;14.86;100.00
60583;BME280;46415;47.536;19.066;2023-10-13T04:18:34;-18632.22;;;14.85;100.00
60583;BME280;46415;47.536;19.066;2023-10-13T04:22:07;-18632.63;;;14.87;100.00
60583;BME280;46415;47.536;19.066;2023-10-13T04:25:31;-18634.53;;;14.94;100.00
60583;BME280;46415;47.536;19.066;2023-10-13T04:28:50;-18635.22;;;14.96;100.00
60583;BME280;46415;47.536;19.066;2023-10-13T04:32:06;-18636.47;;;15.01;100.00
60583;BME280;46415;47.536;19.066;2023-10-13T04:35:25;-18637.28;;;15.04;100.00
60583;BME280;46415;47.536;19.066;2023-10-13T04:38:39;-18637.53;;;15.05;100.00
60583;BME280;46415;47.536;19.066;2023-10-13T04:42:06;-18638.22;;;15.07;100.00
60583;BME280;46415;47.536;19.066;2023-10-13T04:46:05;-18636.19;;;15.00;100.00
60583;BME280;46415;47.536;19.066;2023-10-13T04:49:52;-18634.97;;;14.95;100.00
60583;BME280;46415;47.536;19.066;2023-10-13T04:53:06;-18633.03;;;14.88;100.00
60583;BME280;46415;47.536;19.066;2023-10-13T04:56:36;-18632.22;;;14.85;100.00
60583;BME280;46415;47.536;19.066;2023-10-13T05:00:08;-18633.59;;;14.90;100.00
60583;BME280;46415;47.536;19.066;2023-10-13T05:03:21;-18635.91;;;14.99;100.00
60583;BME280;46415;47.536;19.066;2023-10-13T05:07:05;-18636.03;;;14.99;100.00
60583;BME280;46415;47.536;19.066;2023-10-13T05:10:40;-18636.87;;;15.02;100.00
60583;BME280;46415;47.536;19.066;2023-10-13T05:14:10;-18638.78;;;15.09;100.00
60583;BME280;46415;47.536;19.066;2023-10-13T05:17:41;-18639.31;;;15.11;100.00
60583;BME280;46415;47.536;19.066;2023-10-13T05:21:08;-18639.72;;;15.13;100.00
60583;BME280;46415;47.536;19.066;2023-10-13T05:24:54;-18640.41;;;15.16;100.00
60583;BME280;46415;47.536;19.066;2023-10-13T05:28:27;-18640.81;;;15.17;100.00
60583;BME280;46415;47.536;19.066;2023-10-13T05:31:57;-18642.19;;;15.22;100.00
60583;BME280;46415;47.536;19.066;2023-10-13T05:35:31;-18641.38;;;15.19;100.00
60583;BME280;46415;47.536;19.066;2023-10-13T05:38:56;-18642.88;;;15.25;100.00
60583;BME280;46415;47.536;19.066;2023-10-13T05:42:22;-18646.28;;;15.37;100.00
60583;BME280;46415;47.536;19.066;2023-10-13T05:45:48;-18647.38;;;15.41;100.00
60583;BME280;46415;47.536;19.066;2023-10-13T05:49:12;-18647.78;;;15.43;100.00
60583;BME280;46415;47.536;19.066;2023-10-13T05:52:19;-18649.81;;;15.50;100.00
60583;BME280;46415;47.536;19.066;2023-10-13T05:55:46;-18651.88;;;15.58;100.00
60583;BME280;46415;47.536;19.066;2023-10-13T05:59:12;-18654.06;;;15.66;100.00
60583;BME280;46415;47.536;19.066;2023-10-13T06:02:42;-18651.72;;;15.58;100.00
60583;BME280;46415;47.536;19.066;2023-10-13T06:06:12;-18649.69;;;15.50;100.00
60583;BME280;46415;47.536;19.066;2023-10-13T06:09:40;-18652.00;;;15.59;100.00
60583;BME280;46415;47.536;19.066;2023-10-13T06:13:07;-18653.78;;;15.65;100.00
60583;BME280;46415;47.536;19.066;2023-10-13T06:16:35;-18654.72;;;15.69;100.00
60583;BME280;46415;47.536;19.066;2023-10-13T06:20:01;-18657.47;;;15.79;100.00
60583;BME280;46415;47.536;19.066;2023-10-13T06:23:28;-18660.88;;;15.91;100.00
60583;BME280;46415;47.536;19.066;2023-10-13T06:26:53;-18663.88;;;16.03;100.00
60583;BME280;46415;47.536;19.066;2023-10-13T06:30:17;-18667.41;;;16.16;100.00
60583;BME280;46415;47.536;19.066;2023-10-13T06:33:25;-18670.13;;;16.26;100.00
60583;BME280;46415;47.536;19.066;2023-10-13T06:36:36;-18671.34;;;16.30;100.00
60583;BME280;46415;47.536;19.066;2023-10-13T06:39:47;-18671.50;;;16.31;100.00
60583;BME280;46415;47.536;19.066;2023-10-13T06:42:55;-18670.13;;;16.26;100.00
60583;BME280;46415;47.536;19.066;2023-10-13T06:46:21;-18670.13;;;16.26;100.00
60583;BME280;46415;47.536;19.066;2023-10-13T06:49:30;-18671.50;;;16.31;100.00
60583;BME280;46415;47.536;19.066;2023-10-13T06:52:42;-18669.31;;;16.23;100.00
60583;BME280;46415;47.536;19.066;2023-10-13T06:55:56;-18668.09;;;16.18;100.00
60583;BME280;46415;47.536;19.066;2023-10-13T06:59:08;-18670.13;;;16.26;100.00
60583;BME280;46415;47.536;19.066;2023-10-13T07:02:18;-18665.91;;;16.10;100.00
60583;BME280;46415;47.536;19.066;2023-10-13T07:05:37;-18665.50;;;16.09;100.00
60583;BME280;46415;47.536;19.066;2023-10-13T07:08:48;-18667.94;;;16.18;100.00
60583;BME280;46415;47.536;19.066;2023-10-13T07:12:06;-18666.19;;;16.11;100.00
60583;BME280;46415;47.536;19.066;2023-10-13T07:15:27;-18665.78;;;16.10;100.00
60583;BME280;46415;47.536;19.066;2023-10-13T07:18:31;-18667.41;;;16.16;100.00
60583;BME280;46415;47.536;19.066;2023-10-13T07:21:40;-18669.19;;;16.22;100.00
60583;BME280;46415;47.536;19.066;2023-10-13T07:24:50;-18671.09;;;16.29;100.00
60583;BME280;46415;47.536;19.066;2023-10-13T07:27:57;-18672.59;;;16.35;100.00
60583;BME280;46415;47.536;19.066;2023-10-13T07:31:05;-18671.78;;;16.32;100.00
60583;BME280;46415;47.536;19.066;2023-10-13T07:34:08;-18675.31;;;16.45;100.00
60583;BME280;46415;47.536;19.066;2023-10-13T07:37:29;-18679.25;;;16.60;100.00
60583;BME280;46415;47.536;19.066;2023-10-13T07:40:34;-18685.94;;;16.85;100.00
60583;BME280;46415;47.536;19.066;2023-10-13T07:43:38;-18692.06;;;17.07;100.00
60583;BME280;46415;47.536;19.066;2023-10-13T07:46:43;-18695.75;;;17.21;100.00
60583;BME280;46415;47.536;19.066;2023-10-13T07:49:50;-18699.97;;;17.37;100.00
60583;BME280;46415;47.536;19.066;2023-10-13T07:52:54;-18705.41;;;17.57;100.00
60583;BME280;46415;47.536;19.066;2023-10-13T07:56:22;-18703.50;;;17.50;100.00
60583;BME280;46415;47.536;19.066;2023-10-13T07:59:25;-18702.69;;;17.47;100.00
60583;BME280;46415;47.536;19.066;2023-10-13T08:02:28;-18704.72;;;17.54;100.00
60583;BME280;46415;47.536;19.066;2023-10-13T08:05:58;-18706.09;;;17.60;100.00
60583;BME280;46415;47.536;19.066;2023-10-13T08:09:13;-18707.72;;;17.66;100.00
60583;BME280;46415;47.536;19.066;2023-10-13T08:12:33;-18710.44;;;17.76;100.00
60583;BME280;46415;47.536;19.066;2023-10-13T08:15:40;-18711.81;;;17.81;100.00
60583;BME280;46415;47.536;19.066;2023-10-13T08:18:50;-18712.06;;;17.82;100.00
60583;BME280;46415;47.536;19.066;2023-10-13T08:21:54;-18714.81;;;17.92;100.00
60583;BME280;46415;47.536;19.066;2023-10-13T08:25:02;-18715.63;;;17.95;100.00
60583;BME280;46415;47.536;19.066;2023-10-13T08:28:25;-18716.69;;;17.99;100.00
60583;BME280;46415;47.536;19.066;2023-10-13T08:31:49;-18720.25;;;18.12;100.00
60583;BME280;46415;47.536;19.066;2023-10-13T08:35:17;-18721.72;;;18.18;100.00
60583;BME280;46415;47.536;19.066;2023-10-13T08:38:40;-18723.62;;;18.25;100.00
60583;BME280;46415;47.536;19.066;2023-10-13T08:41:56;-18728.94;;;18.45;100.00
60583;BME280;46415;47.536;19.066;2023-10-13T08:45:20;-18734.25;;;18.64;100.00
60583;BME280;46415;47.536;19.066;2023-10-13T08:48:36;-18738.19;;;18.79;100.00
60583;BME280;46415;47.536;19.066;2023-10-13T08:51:40;-18739.56;;;18.84;100.00
60583;BME280;46415;47.536;19.066;2023-10-13T08:54:48;-18739.28;;;18.83;100.00
60583;BME280;46415;47.536;19.066;2023-10-13T08:58:08;-18739.81;;;18.85;100.00
60583;BME280;46415;47.536;19.066;2023-10-13T09:01:27;-18739.56;;;18.84;100.00
60583;BME280;46415;47.536;19.066;2023-10-13T09:04:44;-18736.69;;;18.73;100.00
60583;BME280;46415;47.536;19.066;2023-10-13T09:07:48;-18732.75;;;18.59;100.00
60583;BME280;46415;47.536;19.066;2023-10-13T09:11:08;-18733.28;;;18.61;100.00
60583;BME280;46415;47.536;19.066;2023-10-13T09:14:20;-18742.81;;;18.96;100.00
60583;BME280;46415;47.536;19.066;2023-10-13T09:21:19;-18761.28;;;19.65;100.00
60583;BME280;46415;47.536;19.066;2023-10-13T09:24:47;-18769.16;;;19.94;100.00
60583;BME280;46415;47.536;19.066;2023-10-13T09:27:56;-18776.78;;;20.23;100.00
60583;BME280;46415;47.536;19.066;2023-10-13T09:31:08;-18779.50;;;20.33;100.00
60583;BME280;46415;47.536;19.066;2023-10-13T09:34:19;-18783.56;;;20.48;100.00
60583;BME280;46415;47.536;19.066;2023-10-13T09:37:25;-18787.09;;;20.61;100.00
60583;BME280;46415;47.536;19.066;2023-10-13T09:40:34;-18790.34;;;20.73;100.00
60583;BME280;46415;47.536;19.066;2023-10-13T09:43:45;-18786.69;;;20.60;100.00
60583;BME280;46415;47.536;19.066;2023-10-13T09:46:54;-18785.88;;;20.57;100.00
60583;BME280;46415;47.536;19.066;2023-10-13T09:50:03;-18788.31;;;20.66;100.00
60583;BME280;46415;47.536;19.066;2023-10-13T09:53:13;-18787.63;;;20.63;100.00
60583;BME280;46415;47.536;19.066;2023-10-13T09:56:28;-18794.16;;;20.88;100.00
60583;BME280;46415;47.536;19.066;2023-10-13T09:59:35;-18804.31;;;21.26;100.00
60583;BME280;46415;47.536;19.066;2023-10-13T10:02:42;-18811.50;;;21.52;100.00
60583;BME280;46415;47.536;19.066;2023-10-13T10:05:58;-18811.38;;;21.52;100.00
60583;BME280;46415;47.536;19.066;2023-10-13T10:09:08;-18816.25;;;21.70;97.85
60583;BME280;46415;47.536;19.066;2023-10-13T10:15:34;-18820.59;;;21.86;95.86
60583;BME280;46415;47.536;19.066;2023-10-13T10:18:41;-18818.28;;;21.78;96.13
60583;BME280;46415;47.536;19.066;2023-10-13T10:21:51;-18818.81;;;21.80;96.93
60583;BME280;46415;47.536;19.066;2023-10-13T10:25:11;-18825.19;;;22.04;96.08
60583;BME280;46415;47.536;19.066;2023-10-13T10:28:40;-18828.19;;;22.15;95.09
60583;BME280;46415;47.536;19.066;2023-10-13T10:31:51;-18827.37;;;22.12;95.56
60583;BME280;46415;47.536;19.066;2023-10-13T10:35:02;-18828.03;;;22.14;94.52
60583;BME280;46415;47.536;19.066;2023-10-13T10:38:22;-18824.78;;;22.02;96.30
60583;BME280;46415;47.536;19.066;2023-10-13T10:41:31;-18828.03;;;22.14;96.22
60583;BME280;46415;47.536;19.066;2023-10-13T10:45:00;-18827.09;;;22.11;96.12
60583;BME280;46415;47.536;19.066;2023-10-13T10:48:15;-18827.50;;;22.12;94.58
60583;BME280;46415;47.536;19.066;2023-10-13T10:51:20;-18824.53;;;22.01;95.14
60583;BME280;46415;47.536;19.066;2023-10-13T10:54:24;-18828.59;;;22.16;95.35
60583;BME280;46415;47.536;19.066;2023-10-13T10:57:34;-18830.75;;;22.24;95.04
60583;BME280;46415;47.536;19.066;2023-10-13T11:00:43;-18829.13;;;22.18;95.20
60583;BME280;46415;47.536;19.066;2023-10-13T11:03:58;-18827.63;;;22.13;95.75
60583;BME280;46415;47.536;19.066;2023-10-13T11:07:30;-18829.94;;;22.21;95.41
60583;BME280;46415;47.536;19.066;2023-10-13T11:10:45;-18834.81;;;22.39;94.83
60583;BME280;46415;47.536;19.066;2023-10-13T11:13:55;-18841.31;;;22.64;94.38
60583;BME280;46415;47.536;19.066;2023-10-13T11:17:19;-18845.66;;;22.80;93.51
60583;BME280;46415;47.536;19.066;2023-10-13T11:20:31;-18850.81;;;22.99;91.99
60583;BME280;46415;47.536;19.066;2023-10-13T11:23:59;-18856.63;;;23.21;93.07
60583;BME280;46415;47.536;19.066;2023-10-13T11:27:15;-18864.34;;;23.50;90.87
60583;BME280;46415;47.536;19.066;2023-10-13T11:30:28;-18871.38;;;23.76;88.66
60583;BME280;46415;47.536;19.066;2023-10-13T11:33:49;-18873.25;;;23.83;86.61
60583;BME280;46415;47.536;19.066;2023-10-13T11:36:59;-18880.03;;;24.09;87.48
60583;BME280;46415;47.536;19.066;2023-10-13T11:40:28;-18888.41;;;24.40;86.01
60583;BME280;46415;47.536;19.066;2023-10-13T11:43:51;-18891.38;;;24.51;84.02
60583;BME280;46415;47.536;19.066;2023-10-13T11:47:15;-18896.78;;;24.71;82.80
60583;BME280;46415;47.536;19.066;2023-10-13T11:50:43;-18900.03;;;24.84;82.01
60583;BME280;46415;47.536;19.066;2023-10-13T11:53:49;-18905.28;;;25.03;81.19
60583;BME280;46415;47.536;19.066;2023-10-13T11:57:01;-18904.91;;;25.02;82.54
60583;BME280;46415;47.536;19.066;2023-10-13T12:00:11;-18902.06;;;24.91;80.46
60583;BME280;46415;47.536;19.066;2023-10-13T12:03:52;-18905.16;;;25.03;81.28
60583;BME280;46415;47.536;19.066;2023-10-13T12:07:19;-18911.38;;;25.26;80.43
60583;BME280;46415;47.536;19.066;2023-10-13T12:10:26;-18916.22;;;25.44;79.71
60583;BME280;46415;47.536;19.066;2023-10-13T12:13:41;-18916.50;;;25.45;80.01
60583;BME280;46415;47.536;19.066;2023-10-13T12:16:50;-18914.75;;;25.39;79.38
60583;BME280;46415;47.536;19.066;2023-10-13T12:19:57;-18914.47;;;25.38;79.75
60583;BME280;46415;47.536;19.066;2023-10-13T12:23:05;-18912.31;;;25.30;79.19
60583;BME280;46415;47.536;19.066;2023-10-13T12:26:23;-18912.31;;;25.30;79.72
60583;BME280;46415;47.536;19.066;2023-10-13T12:29:37;-18907.59;;;25.12;81.37
60583;BME280;46415;47.536;19.066;2023-10-13T12:32:51;-18909.09;;;25.17;81.73
60583;BME280;46415;47.536;19.066;2023-10-13T12:36:13;-18909.09;;;25.17;81.84
60583;BME280;46415;47.536;19.066;2023-10-13T12:39:21;-18911.91;;;25.28;82.13
60583;BME280;46415;47.536;19.066;2023-10-13T12:42:46;-18909.63;;;25.19;83.21
60583;BME280;46415;47.536;19.066;2023-10-13T12:46:09;-18905.84;;;25.05;83.69
60583;BME280;46415;47.536;19.066;2023-10-13T12:49:37;-18903.69;;;24.97;81.76
60583;BME280;46415;47.536;19.066;2023-10-13T12:53:07;-18903.69;;;24.97;82.31
60583;BME280;46415;47.536;19.066;2023-10-13T12:56:21;-18907.19;;;25.10;82.41
60583;BME280;46415;47.536;19.066;2023-10-13T12:59:37;-18911.38;;;25.26;82.27
60583;BME280;46415;47.536;19.066;2023-10-13T13:02:44;-18913.00;;;25.32;81.17
60583;BME280;46415;47.536;19.066;2023-10-13T13:05:51;-18917.03;;;25.47;80.92
60583;BME280;46415;47.536;19.066;2023-10-13T13:08:59;-18921.50;;;25.64;75.99
60583;BME280;46415;47.536;19.066;2023-10-13T13:12:07;-18925.81;;;25.80;75.39
60583;BME280;46415;47.536;19.066;2023-10-13T13:15:10;-18929.47;;;25.94;74.63
60583;BME280;46415;47.536;19.066;2023-10-13T13:18:20;-18935.41;;;26.16;72.75
60583;BME280;46415;47.536;19.066;2023-10-13T13:21:33;-18938.38;;;26.27;71.15
60583;BME280;46415;47.536;19.066;2023-10-13T13:24:42;-18939.31;;;26.31;70.58
60583;BME280;46415;47.536;19.066;2023-10-13T13:27:50;-18939.47;;;26.31;68.59
60583;BME280;46415;47.536;19.066;2023-10-13T13:30:56;-18939.19;;;26.30;67.84
60583;BME280;46415;47.536;19.066;2023-10-13T13:34:02;-18941.88;;;26.40;67.36
60583;BME280;46415;47.536;19.066;2023-10-13T13:37:11;-18941.34;;;26.38;66.05
60583;BME280;46415;47.536;19.066;2023-10-13T13:40:27;-18945.38;;;26.54;65.79
60583;BME280;46415;47.536;19.066;2023-10-13T13:43:45;-18948.34;;;26.65;64.28
60583;BME280;46415;47.536;19.066;2023-10-13T13:46:57;-18950.37;;;26.72;64.33
60583;BME280;46415;47.536;19.066;2023-10-13T13:50:05;-18954.03;;;26.86;62.95
60583;BME280;46415;47.536;19.066;2023-10-13T13:53:21;-18959.28;;;27.06;60.36
60583;BME280;46415;47.536;19.066;2023-10-13T13:56:37;-18961.03;;;27.12;60.16
60583;BME280;46415;47.536;19.066;2023-10-13T13:59:53;-18964.41;;;27.25;58.62
60583;BME280;46415;47.536;19.066;2023-10-13T14:03:01;-18960.75;;;27.11;58.63
60583;BME280;46415;47.536;19.066;2023-10-13T14:06:12;-18959.69;;;27.07;57.70
60583;BME280;46415;47.536;19.066;2023-10-13T14:09:28;-18962.09;;;27.16;57.36
60583;BME280;46415;47.536;19.066;2023-10-13T14:12:55;-18959.41;;;27.06;57.61
60583;BME280;46415;47.536;19.066;2023-10-13T14:16:21;-18957.00;;;26.97;56.53
60583;BME280;46415;47.536;19.066;2023-10-13T14:19:34;-18955.63;;;26.92;57.93
60583;BME280;46415;47.536;19.066;2023-10-13T14:22:51;-18952.41;;;26.80;58.18
60583;BME280;46415;47.536;19.066;2023-10-13T14:26:02;-18947.53;;;26.62;56.09
60583;BME280;46415;47.536;19.066;2023-10-13T14:29:16;-18940.25;;;26.34;55.93
60583;BME280;46415;47.536;19.066;2023-10-13T14:32:27;-18933.91;;;26.11;55.85
60583;BME280;46415;47.536;19.066;2023-10-13T14:35:37;-18931.75;;;26.02;57.45
60583;BME280;46415;47.536;19.066;2023-10-13T14:38:47;-18932.03;;;26.04;58.58
60583;BME280;46415;47.536;19.066;2023-10-13T14:42:02;-18931.75;;;26.02;58.08
60583;BME280;46415;47.536;19.066;2023-10-13T14:45:15;-18936.47;;;26.20;56.77
60583;BME280;46415;47.536;19.066;2023-10-13T14:48:32;-18935.94;;;26.18;55.01
60583;BME280;46415;47.536;19.066;2023-10-13T14:51:42;-18934.19;;;26.12;54.62
60583;BME280;46415;47.536;19.066;2023-10-13T14:54:53;-18932.44;;;26.05;55.41
60583;BME280;46415;47.536;19.066;2023-10-13T14:58:08;-18927.56;;;25.87;56.50
60583;BME280;46415;47.536;19.066;2023-10-13T15:01:24;-18922.03;;;25.66;59.40
60583;BME280;46415;47.536;19.066;2023-10-13T15:04:36;-18916.50;;;25.45;61.06
60583;BME280;46415;47.536;19.066;2023-10-13T15:07:45;-18913.66;;;25.35;62.68
60583;BME280;46415;47.536;19.066;2023-10-13T15:10:57;-18911.50;;;25.27;66.44
60583;BME280;46415;47.536;19.066;2023-10-13T15:14:05;-18909.50;;;25.19;67.41
60583;BME280;46415;47.536;19.066;2023-10-13T15:17:18;-18900.56;;;24.86;70.90
60583;BME280;46415;47.536;19.066;2023-10-13T15:20:22;-18891.50;;;24.52;73.24
60583;BME280;46415;47.536;19.066;2023-10-13T15:23:35;-18882.31;;;24.17;76.19
60583;BME280;46415;47.536;19.066;2023-10-13T15:26:52;-18872.19;;;23.79;78.50
60583;BME280;46415;47.536;19.066;2023-10-13T15:30:14;-18859.59;;;23.32;82.57
60583;BME280;46415;47.536;19.066;2023-10-13T15:33:28;-18851.06;;;23.00;82.80
60583;BME280;46415;47.536;19.066;2023-10-13T15:36:42;-18843.34;;;22.71;84.98
60583;BME280;46415;47.536;19.066;2023-10-13T15:39:58;-18832.50;;;22.31;89.97
60583;BME280;46415;47.536;19.066;2023-10-13T15:43:10;-18825.19;;;22.04;90.93
60583;BME280;46415;47.536;19.066;2023-10-13T15:46:23;-18818.69;;;21.79;91.78
60583;BME280;46415;47.536;19.066;2023-10-13T15:49:41;-18812.03;;;21.54;93.40
60583;BME280;46415;47.536;19.066;2023-10-13T15:52:50;-18805.28;;;21.29;93.80
60583;BME280;46415;47.536;19.066;2023-10-13T15:56:03;-18799.56;;;21.08;94.41
60583;BME280;46415;47.536;19.066;2023-10-13T15:59:23;-18793.59;;;20.86;94.58
60583;BME280;46415;47.536;19.066;2023-10-13T16:02:37;-18786.97;;;20.61;97.37
60583;BME280;46415;47.536;19.066;2023-10-13T16:05:56;-18781.13;;;20.39;97.26
60583;BME280;46415;47.536;19.066;2023-10-13T16:09:10;-18776.22;;;20.21;97.23
60583;BME280;46415;47.536;19.066;2023-10-13T16:12:26;-18771.88;;;20.05;97.80
60583;BME280;46415;47.536;19.066;2023-10-13T16:15:41;-18768.50;;;19.92;98.40
60583;BME280;46415;47.536;19.066;2023-10-13T16:18:59;-18765.38;;;19.80;98.33
60583;BME280;46415;47.536;19.066;2023-10-13T16:22:13;-18762.38;;;19.69;98.68
60583;BME280;46415;47.536;19.066;2023-10-13T16:25:31;-18759.94;;;19.60;99.24
60583;BME280;46415;47.536;19.066;2023-10-13T16:28:39;-18757.22;;;19.50;99.61
60583;BME280;46415;47.536;19.066;2023-10-13T16:31:52;-18754.09;;;19.38;100.00
60583;BME280;46415;47.536;19.066;2023-10-13T16:35:06;-18750.69;;;19.26;100.00
60583;BME280;46415;47.536;19.066;2023-10-13T16:38:22;-18748.12;;;19.16;100.00
60583;BME280;46415;47.536;19.066;2023-10-13T16:41:36;-18745.13;;;19.05;100.00
60583;BME280;46415;47.536;19.066;2023-10-13T16:44:49;-18742.53;;;18.95;100.00
60583;BME280;46415;47.536;19.066;2023-10-13T16:48:00;-18739.97;;;18.86;100.00
60583;BME280;46415;47.536;19.066;2023-10-13T16:51:12;-18736.97;;;18.74;100.00
60583;BME280;46415;47.536;19.066;2023-10-13T16:54:24;-18733.84;;;18.63;100.00